Weather at St-Donat Airport

Public forecast

Using degrees Celsius for public forecast. Weather courtesy of forecast.io.

Closest aviation weather report (METAR) to St-Donat Airport

Closest report is Montreal International (Mirabel) Airport, 38.1 nm (70.5 km) S.

2024/05/30 02:00 (retrieved 1 hour ago)

CYMX 300200Z 32005KT 25SM SCT220 12/05 A2998 RMK CI4 SLP156

Closest aviation forecast (TAF) to St-Donat Airport

Forecast is more than 6 hours old.

Closest forecast is Ottawa / Gatineau Airport, 74.5 nm (138.0 km) SW.

2024/05/29 18:00 (retrieved 9 hours ago)

TAF CYND 291740Z 2918/3001 32012KT P6SM FEW040 BKN240 RMK NXT FCST BY 301300Z